Aérodrome :
LOGIN :

S'inscrire | Disclaimer

   EN    FR    IT 

 










Légende :    VFR   VFR Marginal   IFR   IFR Intensif   IFR Très Intensif
Visi : 
Plafond : 
>= 8 km
>= 3000ft
5 à 8 km
1000 à 3000 ft
1500m à 5 km
500 à 1000 ft
800 à 1500m
200 à 500 ft
< 800m
< 200 ft
Symboles :   Orages  Brouillard  Fortes neiges  Fortes précipitations  Vent > 20 kt
SIGMETs :   Divers  Orages  Givrage  Turbulence  Onde Orograph.  Cendres Volcan.







- Altitude de l'aérodrome : 776 ft
- Code IATA : RMS


ETAR - Ramstein Air Base

DERNIER METAR :
  • 300258Z 00000KT 9999 CLR 01/M01 A2994 RMK AO2A SLP147 T00081007 57004 $

METARs EXPIRÉS :
  • 300158Z 00000KT 9999 CLR 01/M01 A2995 RMK AO2A SLP151 T00111008 $
  • 300058Z 00000KT 9999 CLR 00/M01 A2995 RMK AO2A SLP151 T10051015 $

TAF TAF ETAR
Valide du 30 à 02h jusqu'au 01 à 08h UTC


300201Z 3002/0108 10006KT 9999 SKC QNH2990INS
BECMG 3007/3008 10012G20KT 9999 SKC QNH2977INS
BECMG 3013/3014 10012KT 9999 SKC QNH2972INS
TEMPO 3014/3020 10012G20KT
BECMG 0101/0102 25009KT 9999 OVC020 QNH2975INS
BECMG 0105/0106 25009KT 9000 -RA OVC015 610509 611402 QNH2977INS TX20/3015Z TNM02/3004Z
Pas de NOTAMs connus pour ce terrain.



MET'MAP, la Météo Aéronautique d'un coup d'oeil ! - Copyright ORBIFLY Décembre 2007 - Disclaimer

ORBIFLY MET'MAP TEAM :

Programmation & Développement : Alexandra Zaïnal
Conception & Développement : Baudouin d'Aumeries
Co-Programmation & Développement : Marc-Olivier Méhu
Soutien technique & logistique : Manuel Goepfert

Contact : metmap@orbifly.com




SOURCES & CREDITS :

   NOAA